West Milford, New Jersey
Current Conditions -  °F | °C
As of 4:07 PM on Monday 22 Dec 2014 (Local Time) from KFWN Reporting Station
Haze Haze  
Wind Chill: 29°   Ceiling: 1000
Heat Index: 35°   Visibility: 5mi
Dew Point: 31°   Wind: 7mph
Humidity: 85%   Direction: 50°NE
Pressure: 30.23"   Gusts: NA
Location:  41.13°N, 74.37°W
Report Text: KFWN 222107Z AUTO 05006KT 5SM BR OVC010 02/M01 A3023 RMK AO2 T00171006
Loading
Personal Weather Stations






























Interactive Weather Map New forecast layout! Learn more

10-Day Weather Forecast

Advertisements
Track Severe Weather on mobile